West Line, Missouri
Current Conditions -  °F | °C
As of 9:53 AM on Wednesday 26 Nov 2014 (Local Time) from KOJC Reporting Station
Broken Clouds Broken Clouds  
Wind Chill: 35°   Ceiling: 7500
Heat Index: 42°   Visibility: 10mi
Dew Point: 32°   Wind: 14mph
Humidity: 67%   Direction: 310°NW
Pressure: 29.98"   Gusts: 25mph
Location:  38.653°N, 94.5715°W
Report Text: KOJC 261553Z 31012G22KT 10SM SCT038 BKN075 06/00 A2998 RMK AO2 SLP156 T00560000
Loading
Personal Weather Stations






























Interactive Weather Map New forecast layout! Learn more

10-Day Weather Forecast

Advertisements
Track Severe Weather on mobile